Terminal Aerodrome Forecast
Issued by NWS

Home | Current Version | Previous Version | Text Only | Print | Product List | Glossary On
Versions: 1 2 3 4 5 6 7 8 9 10 11 12 13 14 15 16 17 18 19 20 21 22 23 24
000
FTAK31 PAFA 281739
TAFAMC
TAF
PAMC 281739Z 2818/2918 12003KT 6SM -RA BR BKN012 OVC020
     FM290100 VRB04KT P6SM VCSH SCT025 BKN050
     FM290500 32004KT P6SM SCT040 BKN070=

USA.gov is the U.S. government's official web portal to all federal, state and local government web resources and services.